Cherokee County Rgnl Information

FAA: CNI - ICAO: KCNI

Cherokee County Rgnl (Airport) Location

State Georgia
County Cherokee
City Canton
Cherokee County Rgnl (Airport) is 6 miles northeast of Canton, GA.
Latitude 34-18-43.9890N
Longitude 084-25-19.7500W
Elevation 1,219ft

Cherokee County Rgnl METARs

METAR KCNI 171955Z AUTO 00000KT 10SM CLR 27/06 A3004 RMK AO2
Altimeter 30.04"
Temperature 27.0°C (80.6°F)
Wind 0° at 0KT
Clouds Skies are clear.
Visibility 10.0mi
Time observed: 2022-05-17T19:55:00Z

Cherokee County Rgnl (Airport) Details

Status Operational
Activation N/A
Ownership Public
Usage Public
Chart ATLANTA
ATC on-site No
Beacon schedule sunset-sunrise
Beacon color clear green

Cherokee County Rgnl (Airport) Contacts

Owner CHEROKEE COUNTY AIRPORT AUTH.
Owner address PO BOX 5052, CANTON, GA 30114
Owner phone 678-454-2060
Manager RANDY POOL
Manager address 3907 AIRPORT ROAD, CAMILLA, GA 31730
Manager phone 229-336-2216

Cherokee County Rgnl Radio Frequencies

Cherokee County Rgnl (Airport) Radio Frequencies

UNICOM 123
Common traffic advisory frequency (CTAF) 123